sensor_id;sensor_type;location;lat;lon;timestamp;P1;durP1;ratioP1;P2;durP2;ratioP2
5845;SDS011;2949;50.778;7.094;2024-03-02T00:00:10;0.90;;;0.90;;
5845;SDS011;2949;50.778;7.094;2024-03-02T00:02:44;1.90;;;1.30;;
5845;SDS011;2949;50.778;7.094;2024-03-02T00:05:11;1.33;;;1.17;;
5845;SDS011;2949;50.778;7.094;2024-03-02T00:07:40;1.10;;;1.00;;
5845;SDS011;2949;50.778;7.094;2024-03-02T00:10:10;1.60;;;1.50;;
5845;SDS011;2949;50.778;7.094;2024-03-02T00:12:39;3.50;;;1.20;;
5845;SDS011;2949;50.778;7.094;2024-03-02T00:15:23;2.60;;;1.40;;
5845;SDS011;2949;50.778;7.094;2024-03-02T00:18:03;0.93;;;0.87;;
5845;SDS011;2949;50.778;7.094;2024-03-02T00:20:29;1.87;;;1.10;;
5845;SDS011;2949;50.778;7.094;2024-03-02T00:23:02;1.20;;;1.10;;
5845;SDS011;2949;50.778;7.094;2024-03-02T00:25:40;1.13;;;1.00;;
5845;SDS011;2949;50.778;7.094;2024-03-02T00:28:50;1.90;;;1.37;;
5845;SDS011;2949;50.778;7.094;2024-03-02T00:30:59;1.10;;;0.90;;
5845;SDS011;2949;50.778;7.094;2024-03-02T00:33:47;2.40;;;1.10;;
5845;SDS011;2949;50.778;7.094;2024-03-02T00:36:15;1.20;;;1.10;;
5845;SDS011;2949;50.778;7.094;2024-03-02T00:38:48;1.37;;;1.27;;
5845;SDS011;2949;50.778;7.094;2024-03-02T00:41:23;1.17;;;1.00;;
5845;SDS011;2949;50.778;7.094;2024-03-02T00:46:33;2.33;;;1.10;;
5845;SDS011;2949;50.778;7.094;2024-03-02T00:49:00;1.87;;;1.00;;
5845;SDS011;2949;50.778;7.094;2024-03-02T00:51:29;2.00;;;1.03;;
5845;SDS011;2949;50.778;7.094;2024-03-02T00:53:58;2.13;;;1.30;;
5845;SDS011;2949;50.778;7.094;2024-03-02T00:56:25;1.00;;;0.90;;
5845;SDS011;2949;50.778;7.094;2024-03-02T00:58:51;4.20;;;1.07;;
5845;SDS011;2949;50.778;7.094;2024-03-02T01:01:17;1.30;;;0.87;;
5845;SDS011;2949;50.778;7.094;2024-03-02T01:03:44;1.23;;;1.13;;
5845;SDS011;2949;50.778;7.094;2024-03-02T01:06:10;1.07;;;0.97;;
5845;SDS011;2949;50.778;7.094;2024-03-02T01:08:36;2.50;;;0.90;;
5845;SDS011;2949;50.778;7.094;2024-03-02T01:11:02;0.80;;;0.80;;
5845;SDS011;2949;50.778;7.094;2024-03-02T01:13:28;0.80;;;0.80;;
5845;SDS011;2949;50.778;7.094;2024-03-02T01:15:54;1.30;;;1.03;;
5845;SDS011;2949;50.778;7.094;2024-03-02T01:18:20;1.20;;;1.10;;
5845;SDS011;2949;50.778;7.094;2024-03-02T01:20:47;9.00;;;1.00;;
5845;SDS011;2949;50.778;7.094;2024-03-02T01:23:12;3.00;;;1.10;;
5845;SDS011;2949;50.778;7.094;2024-03-02T01:25:38;1.73;;;0.70;;
5845;SDS011;2949;50.778;7.094;2024-03-02T01:28:04;1.30;;;1.20;;
5845;SDS011;2949;50.778;7.094;2024-03-02T01:30:30;2.60;;;1.00;;
5845;SDS011;2949;50.778;7.094;2024-03-02T01:32:55;2.70;;;1.27;;
5845;SDS011;2949;50.778;7.094;2024-03-02T01:35:21;1.00;;;0.90;;
5845;SDS011;2949;50.778;7.094;2024-03-02T01:37:46;1.93;;;1.20;;
5845;SDS011;2949;50.778;7.094;2024-03-02T01:40:12;1.10;;;0.87;;
5845;SDS011;2949;50.778;7.094;2024-03-02T01:42:38;2.17;;;0.93;;
5845;SDS011;2949;50.778;7.094;2024-03-02T01:45:07;3.20;;;1.20;;
5845;SDS011;2949;50.778;7.094;2024-03-02T01:47:33;2.13;;;1.23;;
5845;SDS011;2949;50.778;7.094;2024-03-02T01:49:59;2.53;;;1.20;;
5845;SDS011;2949;50.778;7.094;2024-03-02T01:52:25;2.10;;;1.20;;
5845;SDS011;2949;50.778;7.094;2024-03-02T01:54:51;0.87;;;0.67;;
5845;SDS011;2949;50.778;7.094;2024-03-02T01:57:17;1.10;;;1.10;;
5845;SDS011;2949;50.778;7.094;2024-03-02T01:59:43;0.93;;;0.93;;
5845;SDS011;2949;50.778;7.094;2024-03-02T02:02:09;1.40;;;0.80;;
5845;SDS011;2949;50.778;7.094;2024-03-02T02:04:34;1.93;;;0.83;;
5845;SDS011;2949;50.778;7.094;2024-03-02T02:07:00;0.87;;;0.80;;
5845;SDS011;2949;50.778;7.094;2024-03-02T02:09:26;0.87;;;0.77;;
5845;SDS011;2949;50.778;7.094;2024-03-02T02:11:51;2.33;;;1.07;;
5845;SDS011;2949;50.778;7.094;2024-03-02T02:14:17;2.00;;;0.77;;
5845;SDS011;2949;50.778;7.094;2024-03-02T02:16:43;2.20;;;1.00;;
5845;SDS011;2949;50.778;7.094;2024-03-02T02:19:09;7.90;;;0.93;;
5845;SDS011;2949;50.778;7.094;2024-03-02T02:21:35;1.00;;;0.90;;
5845;SDS011;2949;50.778;7.094;2024-03-02T02:24:00;1.57;;;1.07;;
5845;SDS011;2949;50.778;7.094;2024-03-02T02:26:28;1.13;;;0.80;;
5845;SDS011;2949;50.778;7.094;2024-03-02T02:28:54;0.70;;;0.67;;
5845;SDS011;2949;50.778;7.094;2024-03-02T02:31:19;1.73;;;0.77;;
5845;SDS011;2949;50.778;7.094;2024-03-02T02:33:45;1.60;;;1.13;;
5845;SDS011;2949;50.778;7.094;2024-03-02T02:36:10;2.73;;;0.90;;
5845;SDS011;2949;50.778;7.094;2024-03-02T02:38:36;0.80;;;0.70;;
5845;SDS011;2949;50.778;7.094;2024-03-02T02:41:21;2.30;;;1.20;;
5845;SDS011;2949;50.778;7.094;2024-03-02T02:43:47;2.80;;;1.20;;
5845;SDS011;2949;50.778;7.094;2024-03-02T02:46:13;0.90;;;0.80;;
5845;SDS011;2949;50.778;7.094;2024-03-02T02:48:38;0.80;;;0.80;;
5845;SDS011;2949;50.778;7.094;2024-03-02T02:51:04;0.77;;;0.73;;
5845;SDS011;2949;50.778;7.094;2024-03-02T02:53:29;1.10;;;0.87;;
5845;SDS011;2949;50.778;7.094;2024-03-02T02:55:55;0.73;;;0.70;;
5845;SDS011;2949;50.778;7.094;2024-03-02T02:58:20;2.50;;;1.33;;
5845;SDS011;2949;50.778;7.094;2024-03-02T03:00:46;0.80;;;0.80;;
5845;SDS011;2949;50.778;7.094;2024-03-02T03:03:12;1.17;;;1.10;;
5845;SDS011;2949;50.778;7.094;2024-03-02T03:05:37;1.20;;;1.07;;
5845;SDS011;2949;50.778;7.094;2024-03-02T03:08:03;2.40;;;0.90;;
5845;SDS011;2949;50.778;7.094;2024-03-02T03:10:28;0.77;;;0.70;;
5845;SDS011;2949;50.778;7.094;2024-03-02T03:12:54;1.00;;;0.90;;
5845;SDS011;2949;50.778;7.094;2024-03-02T03:15:21;1.23;;;0.90;;
5845;SDS011;2949;50.778;7.094;2024-03-02T03:17:46;0.83;;;0.80;;
5845;SDS011;2949;50.778;7.094;2024-03-02T03:20:12;2.63;;;1.10;;
5845;SDS011;2949;50.778;7.094;2024-03-02T03:22:39;1.17;;;1.00;;
5845;SDS011;2949;50.778;7.094;2024-03-02T03:25:05;1.67;;;0.90;;
5845;SDS011;2949;50.778;7.094;2024-03-02T03:27:33;3.20;;;1.40;;
5845;SDS011;2949;50.778;7.094;2024-03-02T03:29:58;2.23;;;1.73;;
5845;SDS011;2949;50.778;7.094;2024-03-02T03:32:24;0.90;;;0.90;;
5845;SDS011;2949;50.778;7.094;2024-03-02T03:34:49;4.30;;;1.30;;
5845;SDS011;2949;50.778;7.094;2024-03-02T03:37:15;2.70;;;1.50;;
5845;SDS011;2949;50.778;7.094;2024-03-02T03:39:41;2.40;;;2.20;;
5845;SDS011;2949;50.778;7.094;2024-03-02T03:42:06;0.97;;;0.90;;
5845;SDS011;2949;50.778;7.094;2024-03-02T03:44:32;1.80;;;0.80;;
5845;SDS011;2949;50.778;7.094;2024-03-02T03:46:58;1.50;;;1.40;;
5845;SDS011;2949;50.778;7.094;2024-03-02T03:49:24;2.30;;;1.10;;
5845;SDS011;2949;50.778;7.094;2024-03-02T03:51:49;1.40;;;1.10;;
5845;SDS011;2949;50.778;7.094;2024-03-02T03:54:15;1.60;;;1.20;;
5845;SDS011;2949;50.778;7.094;2024-03-02T03:56:40;1.67;;;0.97;;
5845;SDS011;2949;50.778;7.094;2024-03-02T03:59:06;1.53;;;1.43;;
5845;SDS011;2949;50.778;7.094;2024-03-02T04:01:31;1.00;;;1.00;;
5845;SDS011;2949;50.778;7.094;2024-03-02T04:03:57;2.40;;;1.10;;
5845;SDS011;2949;50.778;7.094;2024-03-02T04:06:23;2.20;;;1.70;;
5845;SDS011;2949;50.778;7.094;2024-03-02T04:08:49;1.30;;;1.20;;
5845;SDS011;2949;50.778;7.094;2024-03-02T04:11:14;2.70;;;1.07;;
5845;SDS011;2949;50.778;7.094;2024-03-02T04:13:40;1.33;;;1.10;;
5845;SDS011;2949;50.778;7.094;2024-03-02T04:16:05;1.13;;;1.07;;
5845;SDS011;2949;50.778;7.094;2024-03-02T04:18:31;1.93;;;1.40;;
5845;SDS011;2949;50.778;7.094;2024-03-02T04:20:57;4.03;;;1.40;;
5845;SDS011;2949;50.778;7.094;2024-03-02T04:23:24;1.97;;;1.00;;
5845;SDS011;2949;50.778;7.094;2024-03-02T04:25:52;1.07;;;0.97;;
5845;SDS011;2949;50.778;7.094;2024-03-02T04:28:18;1.50;;;1.20;;
5845;SDS011;2949;50.778;7.094;2024-03-02T04:30:43;2.30;;;1.50;;
5845;SDS011;2949;50.778;7.094;2024-03-02T04:33:09;1.63;;;1.53;;
5845;SDS011;2949;50.778;7.094;2024-03-02T04:35:35;1.57;;;1.27;;
5845;SDS011;2949;50.778;7.094;2024-03-02T04:38:01;4.63;;;1.80;;
5845;SDS011;2949;50.778;7.094;2024-03-02T04:40:27;1.93;;;1.43;;
5845;SDS011;2949;50.778;7.094;2024-03-02T04:42:52;2.80;;;1.43;;
5845;SDS011;2949;50.778;7.094;2024-03-02T04:45:18;1.40;;;1.30;;
5845;SDS011;2949;50.778;7.094;2024-03-02T04:47:43;1.73;;;1.63;;
5845;SDS011;2949;50.778;7.094;2024-03-02T04:50:09;2.97;;;1.57;;
5845;SDS011;2949;50.778;7.094;2024-03-02T04:52:35;4.63;;;1.53;;
5845;SDS011;2949;50.778;7.094;2024-03-02T04:55:01;1.70;;;1.40;;
5845;SDS011;2949;50.778;7.094;2024-03-02T04:57:56;2.00;;;1.70;;
5845;SDS011;2949;50.778;7.094;2024-03-02T05:00:21;6.20;;;1.70;;
5845;SDS011;2949;50.778;7.094;2024-03-02T05:02:47;2.03;;;1.40;;
5845;SDS011;2949;50.778;7.094;2024-03-02T05:05:12;4.67;;;1.70;;
5845;SDS011;2949;50.778;7.094;2024-03-02T05:07:40;7.87;;;2.17;;
5845;SDS011;2949;50.778;7.094;2024-03-02T05:10:07;4.47;;;1.90;;
5845;SDS011;2949;50.778;7.094;2024-03-02T05:12:33;2.30;;;1.70;;
5845;SDS011;2949;50.778;7.094;2024-03-02T05:15:08;3.90;;;1.73;;
5845;SDS011;2949;50.778;7.094;2024-03-02T05:17:35;2.90;;;1.60;;
5845;SDS011;2949;50.778;7.094;2024-03-02T05:20:01;9.37;;;3.10;;
5845;SDS011;2949;50.778;7.094;2024-03-02T05:22:27;1.80;;;1.70;;
5845;SDS011;2949;50.778;7.094;2024-03-02T05:24:52;3.27;;;1.73;;
5845;SDS011;2949;50.778;7.094;2024-03-02T05:27:18;2.07;;;1.90;;
5845;SDS011;2949;50.778;7.094;2024-03-02T05:29:43;2.03;;;1.70;;
5845;SDS011;2949;50.778;7.094;2024-03-02T05:32:09;1.60;;;1.50;;
5845;SDS011;2949;50.778;7.094;2024-03-02T05:34:34;1.93;;;1.83;;
5845;SDS011;2949;50.778;7.094;2024-03-02T05:37:00;1.90;;;1.73;;
5845;SDS011;2949;50.778;7.094;2024-03-02T05:39:26;2.20;;;2.00;;
5845;SDS011;2949;50.778;7.094;2024-03-02T05:41:52;5.10;;;1.67;;
5845;SDS011;2949;50.778;7.094;2024-03-02T05:44:17;3.60;;;1.70;;
5845;SDS011;2949;50.778;7.094;2024-03-02T05:46:43;4.83;;;1.70;;
5845;SDS011;2949;50.778;7.094;2024-03-02T05:49:09;1.90;;;1.80;;
5845;SDS011;2949;50.778;7.094;2024-03-02T05:51:35;2.30;;;1.90;;
5845;SDS011;2949;50.778;7.094;2024-03-02T05:54:01;1.90;;;1.80;;
5845;SDS011;2949;50.778;7.094;2024-03-02T05:56:26;4.00;;;1.97;;
5845;SDS011;2949;50.778;7.094;2024-03-02T05:58:52;2.00;;;1.90;;
5845;SDS011;2949;50.778;7.094;2024-03-02T06:01:32;3.03;;;1.80;;
5845;SDS011;2949;50.778;7.094;2024-03-02T06:03:58;2.40;;;1.80;;
5845;SDS011;2949;50.778;7.094;2024-03-02T06:06:24;2.83;;;1.77;;
5845;SDS011;2949;50.778;7.094;2024-03-02T06:08:50;4.70;;;2.13;;
5845;SDS011;2949;50.778;7.094;2024-03-02T06:11:15;2.00;;;1.90;;
5845;SDS011;2949;50.778;7.094;2024-03-02T06:13:41;4.20;;;1.60;;
5845;SDS011;2949;50.778;7.094;2024-03-02T06:16:07;2.90;;;1.97;;
5845;SDS011;2949;50.778;7.094;2024-03-02T06:18:33;8.20;;;2.20;;
5845;SDS011;2949;50.778;7.094;2024-03-02T06:20:59;3.03;;;2.00;;
5845;SDS011;2949;50.778;7.094;2024-03-02T06:23:26;1.47;;;1.37;;
5845;SDS011;2949;50.778;7.094;2024-03-02T06:25:51;3.67;;;2.10;;
5845;SDS011;2949;50.778;7.094;2024-03-02T06:28:17;2.70;;;2.30;;
5845;SDS011;2949;50.778;7.094;2024-03-02T06:30:44;6.77;;;2.53;;
5845;SDS011;2949;50.778;7.094;2024-03-02T06:33:10;3.80;;;1.97;;
5845;SDS011;2949;50.778;7.094;2024-03-02T06:35:35;2.87;;;1.80;;
5845;SDS011;2949;50.778;7.094;2024-03-02T06:38:01;2.13;;;1.97;;
5845;SDS011;2949;50.778;7.094;2024-03-02T06:40:27;7.17;;;1.73;;
5845;SDS011;2949;50.778;7.094;2024-03-02T06:42:52;2.73;;;2.20;;
5845;SDS011;2949;50.778;7.094;2024-03-02T06:45:18;2.50;;;2.03;;
5845;SDS011;2949;50.778;7.094;2024-03-02T06:47:43;6.10;;;1.87;;
5845;SDS011;2949;50.778;7.094;2024-03-02T06:50:09;4.47;;;1.80;;
5845;SDS011;2949;50.778;7.094;2024-03-02T06:52:35;3.00;;;1.97;;
5845;SDS011;2949;50.778;7.094;2024-03-02T06:55:01;2.37;;;1.53;;
5845;SDS011;2949;50.778;7.094;2024-03-02T06:57:26;2.87;;;1.67;;
5845;SDS011;2949;50.778;7.094;2024-03-02T06:59:52;4.13;;;1.50;;
5845;SDS011;2949;50.778;7.094;2024-03-02T07:02:20;1.50;;;1.40;;
5845;SDS011;2949;50.778;7.094;2024-03-02T07:04:46;2.00;;;1.73;;
5845;SDS011;2949;50.778;7.094;2024-03-02T07:07:11;2.00;;;1.53;;
5845;SDS011;2949;50.778;7.094;2024-03-02T07:09:37;2.43;;;1.73;;
5845;SDS011;2949;50.778;7.094;2024-03-02T07:12:03;2.87;;;1.70;;
5845;SDS011;2949;50.778;7.094;2024-03-02T07:14:29;3.70;;;2.10;;
5845;SDS011;2949;50.778;7.094;2024-03-02T07:17:13;2.10;;;1.90;;
5845;SDS011;2949;50.778;7.094;2024-03-02T07:19:39;2.20;;;2.00;;
5845;SDS011;2949;50.778;7.094;2024-03-02T07:22:07;4.33;;;1.90;;
5845;SDS011;2949;50.778;7.094;2024-03-02T07:24:39;2.60;;;1.63;;
5845;SDS011;2949;50.778;7.094;2024-03-02T07:27:11;2.53;;;1.73;;
5845;SDS011;2949;50.778;7.094;2024-03-02T07:29:38;1.73;;;1.60;;
5845;SDS011;2949;50.778;7.094;2024-03-02T07:32:04;2.77;;;1.73;;
5845;SDS011;2949;50.778;7.094;2024-03-02T07:34:31;2.47;;;1.50;;
5845;SDS011;2949;50.778;7.094;2024-03-02T07:36:56;2.00;;;1.27;;
5845;SDS011;2949;50.778;7.094;2024-03-02T07:39:22;1.90;;;1.23;;
5845;SDS011;2949;50.778;7.094;2024-03-02T07:41:48;1.97;;;1.57;;
5845;SDS011;2949;50.778;7.094;2024-03-02T07:44:14;4.07;;;1.60;;
5845;SDS011;2949;50.778;7.094;2024-03-02T07:46:43;1.43;;;1.10;;
5845;SDS011;2949;50.778;7.094;2024-03-02T07:49:14;1.47;;;1.37;;
5845;SDS011;2949;50.778;7.094;2024-03-02T07:51:41;1.90;;;1.63;;
5845;SDS011;2949;50.778;7.094;2024-03-02T07:54:07;2.93;;;1.17;;
5845;SDS011;2949;50.778;7.094;2024-03-02T07:56:32;2.90;;;1.70;;
5845;SDS011;2949;50.778;7.094;2024-03-02T07:58:58;1.70;;;1.50;;
5845;SDS011;2949;50.778;7.094;2024-03-02T08:01:29;1.63;;;1.07;;
5845;SDS011;2949;50.778;7.094;2024-03-02T08:03:56;2.40;;;1.67;;
5845;SDS011;2949;50.778;7.094;2024-03-02T08:06:26;2.70;;;1.17;;
5845;SDS011;2949;50.778;7.094;2024-03-02T08:08:58;1.30;;;1.20;;
5845;SDS011;2949;50.778;7.094;2024-03-02T08:11:25;1.83;;;1.30;;
5845;SDS011;2949;50.778;7.094;2024-03-02T08:13:52;2.37;;;1.23;;
5845;SDS011;2949;50.778;7.094;2024-03-02T08:16:19;2.63;;;1.60;;
5845;SDS011;2949;50.778;7.094;2024-03-02T08:18:48;2.53;;;1.40;;
5845;SDS011;2949;50.778;7.094;2024-03-02T08:21:14;1.40;;;1.23;;
5845;SDS011;2949;50.778;7.094;2024-03-02T08:23:40;3.73;;;1.10;;
5845;SDS011;2949;50.778;7.094;2024-03-02T08:26:07;1.30;;;1.30;;
5845;SDS011;2949;50.778;7.094;2024-03-02T08:28:33;2.80;;;1.40;;
5845;SDS011;2949;50.778;7.094;2024-03-02T08:30:59;3.80;;;2.03;;
5845;SDS011;2949;50.778;7.094;2024-03-02T08:33:24;5.80;;;1.10;;
5845;SDS011;2949;50.778;7.094;2024-03-02T08:35:50;1.70;;;0.90;;
5845;SDS011;2949;50.778;7.094;2024-03-02T08:38:16;2.30;;;1.40;;
5845;SDS011;2949;50.778;7.094;2024-03-02T08:40:41;2.83;;;1.13;;
5845;SDS011;2949;50.778;7.094;2024-03-02T08:43:07;2.47;;;1.40;;
5845;SDS011;2949;50.778;7.094;2024-03-02T08:45:32;3.47;;;1.33;;
5845;SDS011;2949;50.778;7.094;2024-03-02T08:47:59;3.03;;;1.33;;
5845;SDS011;2949;50.778;7.094;2024-03-02T08:50:25;1.53;;;1.13;;
5845;SDS011;2949;50.778;7.094;2024-03-02T08:52:50;1.57;;;1.30;;
5845;SDS011;2949;50.778;7.094;2024-03-02T08:55:16;3.53;;;1.50;;
5845;SDS011;2949;50.778;7.094;2024-03-02T08:57:42;2.20;;;1.40;;
5845;SDS011;2949;50.778;7.094;2024-03-02T09:00:08;1.50;;;1.30;;
5845;SDS011;2949;50.778;7.094;2024-03-02T09:02:34;2.40;;;1.60;;
5845;SDS011;2949;50.778;7.094;2024-03-02T09:05:00;2.43;;;1.40;;
5845;SDS011;2949;50.778;7.094;2024-03-02T09:07:26;1.93;;;1.10;;
5845;SDS011;2949;50.778;7.094;2024-03-02T09:09:51;3.57;;;1.30;;
5845;SDS011;2949;50.778;7.094;2024-03-02T09:12:17;3.50;;;1.40;;
5845;SDS011;2949;50.778;7.094;2024-03-02T09:14:43;3.60;;;1.50;;
5845;SDS011;2949;50.778;7.094;2024-03-02T09:17:09;2.30;;;1.20;;
5845;SDS011;2949;50.778;7.094;2024-03-02T09:19:36;3.70;;;1.10;;
5845;SDS011;2949;50.778;7.094;2024-03-02T09:22:02;1.30;;;1.20;;
5845;SDS011;2949;50.778;7.094;2024-03-02T09:24:30;1.50;;;1.00;;
5845;SDS011;2949;50.778;7.094;2024-03-02T09:26:56;2.50;;;0.90;;
5845;SDS011;2949;50.778;7.094;2024-03-02T09:29:22;1.63;;;1.00;;
5845;SDS011;2949;50.778;7.094;2024-03-02T09:31:47;4.07;;;1.60;;
5845;SDS011;2949;50.778;7.094;2024-03-02T09:34:14;2.40;;;1.37;;
5845;SDS011;2949;50.778;7.094;2024-03-02T09:36:40;2.63;;;1.13;;
5845;SDS011;2949;50.778;7.094;2024-03-02T09:39:09;2.67;;;1.20;;
5845;SDS011;2949;50.778;7.094;2024-03-02T09:41:36;3.87;;;1.70;;
5845;SDS011;2949;50.778;7.094;2024-03-02T09:44:02;1.90;;;1.40;;
5845;SDS011;2949;50.778;7.094;2024-03-02T09:46:28;1.60;;;1.27;;
5845;SDS011;2949;50.778;7.094;2024-03-02T09:48:54;1.40;;;1.20;;
5845;SDS011;2949;50.778;7.094;2024-03-02T09:51:19;3.90;;;1.50;;
5845;SDS011;2949;50.778;7.094;2024-03-02T09:53:45;1.27;;;0.87;;
5845;SDS011;2949;50.778;7.094;2024-03-02T09:56:12;1.73;;;1.30;;
5845;SDS011;2949;50.778;7.094;2024-03-02T09:58:41;1.50;;;1.20;;
5845;SDS011;2949;50.778;7.094;2024-03-02T10:01:07;2.27;;;0.87;;
5845;SDS011;2949;50.778;7.094;2024-03-02T10:03:33;1.97;;;1.07;;
5845;SDS011;2949;50.778;7.094;2024-03-02T10:08:50;1.87;;;1.33;;
5845;SDS011;2949;50.778;7.094;2024-03-02T10:11:32;1.20;;;1.10;;
5845;SDS011;2949;50.778;7.094;2024-03-02T10:14:05;1.00;;;0.90;;
5845;SDS011;2949;50.778;7.094;2024-03-02T10:16:38;1.00;;;1.00;;
5845;SDS011;2949;50.778;7.094;2024-03-02T10:19:21;2.10;;;1.20;;
5845;SDS011;2949;50.778;7.094;2024-03-02T10:21:51;1.20;;;0.93;;
5845;SDS011;2949;50.778;7.094;2024-03-02T10:24:18;4.33;;;1.67;;
5845;SDS011;2949;50.778;7.094;2024-03-02T10:26:45;1.77;;;1.20;;
5845;SDS011;2949;50.778;7.094;2024-03-02T10:29:11;1.73;;;1.20;;
5845;SDS011;2949;50.778;7.094;2024-03-02T10:31:41;3.70;;;1.30;;
5845;SDS011;2949;50.778;7.094;2024-03-02T10:34:08;1.43;;;1.13;;
5845;SDS011;2949;50.778;7.094;2024-03-02T10:36:35;2.57;;;1.17;;
5845;SDS011;2949;50.778;7.094;2024-03-02T10:39:02;1.10;;;1.00;;
5845;SDS011;2949;50.778;7.094;2024-03-02T10:41:29;1.63;;;1.20;;
5845;SDS011;2949;50.778;7.094;2024-03-02T10:44:04;2.67;;;1.60;;
5845;SDS011;2949;50.778;7.094;2024-03-02T10:46:32;2.10;;;1.20;;
5845;SDS011;2949;50.778;7.094;2024-03-02T10:48:59;1.77;;;1.10;;
5845;SDS011;2949;50.778;7.094;2024-03-02T10:51:26;4.87;;;1.10;;
5845;SDS011;2949;50.778;7.094;2024-03-02T10:53:54;2.40;;;1.70;;
5845;SDS011;2949;50.778;7.094;2024-03-02T10:56:30;0.83;;;0.83;;
5845;SDS011;2949;50.778;7.094;2024-03-02T11:01:32;1.50;;;1.33;;
5845;SDS011;2949;50.778;7.094;2024-03-02T11:03:59;2.47;;;1.30;;
5845;SDS011;2949;50.778;7.094;2024-03-02T11:06:28;1.30;;;1.20;;
5845;SDS011;2949;50.778;7.094;2024-03-02T11:08:54;1.67;;;1.47;;
5845;SDS011;2949;50.778;7.094;2024-03-02T11:11:27;2.40;;;0.90;;
5845;SDS011;2949;50.778;7.094;2024-03-02T11:13:57;1.07;;;0.97;;
5845;SDS011;2949;50.778;7.094;2024-03-02T11:16:36;2.00;;;1.43;;
5845;SDS011;2949;50.778;7.094;2024-03-02T11:19:13;1.43;;;1.33;;
5845;SDS011;2949;50.778;7.094;2024-03-02T11:21:40;1.40;;;1.30;;
5845;SDS011;2949;50.778;7.094;2024-03-02T11:26:47;4.20;;;1.33;;
5845;SDS011;2949;50.778;7.094;2024-03-02T11:32:00;2.00;;;0.90;;
5845;SDS011;2949;50.778;7.094;2024-03-02T11:34:30;1.30;;;1.00;;
5845;SDS011;2949;50.778;7.094;2024-03-02T11:37:03;2.70;;;1.33;;
5845;SDS011;2949;50.778;7.094;2024-03-02T11:39:29;2.20;;;0.70;;
5845;SDS011;2949;50.778;7.094;2024-03-02T11:41:56;3.70;;;1.20;;
5845;SDS011;2949;50.778;7.094;2024-03-02T11:44:22;1.57;;;1.20;;
5845;SDS011;2949;50.778;7.094;2024-03-02T11:46:52;0.70;;;0.70;;
5845;SDS011;2949;50.778;7.094;2024-03-02T11:49:40;2.13;;;1.03;;
5845;SDS011;2949;50.778;7.094;2024-03-02T11:52:09;2.10;;;0.90;;
5845;SDS011;2949;50.778;7.094;2024-03-02T11:54:36;5.73;;;0.97;;
5845;SDS011;2949;50.778;7.094;2024-03-02T11:57:06;1.00;;;0.87;;
5845;SDS011;2949;50.778;7.094;2024-03-02T11:59:33;0.87;;;0.80;;
5845;SDS011;2949;50.778;7.094;2024-03-02T12:01:59;1.63;;;0.73;;
5845;SDS011;2949;50.778;7.094;2024-03-02T12:04:25;3.10;;;0.70;;
5845;SDS011;2949;50.778;7.094;2024-03-02T12:06:58;0.70;;;0.70;;
5845;SDS011;2949;50.778;7.094;2024-03-02T12:09:25;0.60;;;0.60;;
5845;SDS011;2949;50.778;7.094;2024-03-02T12:12:09;0.50;;;0.50;;
5845;SDS011;2949;50.778;7.094;2024-03-02T12:14:38;1.40;;;0.50;;
5845;SDS011;2949;50.778;7.094;2024-03-02T12:17:04;1.97;;;0.63;;
5845;SDS011;2949;50.778;7.094;2024-03-02T12:19:31;2.00;;;0.70;;
5845;SDS011;2949;50.778;7.094;2024-03-02T12:21:57;0.60;;;0.60;;
5845;SDS011;2949;50.778;7.094;2024-03-02T12:24:24;0.60;;;0.60;;
5845;SDS011;2949;50.778;7.094;2024-03-02T12:26:51;1.30;;;1.00;;
5845;SDS011;2949;50.778;7.094;2024-03-02T12:29:19;1.17;;;0.70;;
5845;SDS011;2949;50.778;7.094;2024-03-02T12:31:47;3.50;;;0.90;;
5845;SDS011;2949;50.778;7.094;2024-03-02T12:34:13;1.13;;;0.70;;
5845;SDS011;2949;50.778;7.094;2024-03-02T12:36:41;0.70;;;0.70;;
5845;SDS011;2949;50.778;7.094;2024-03-02T12:39:10;0.80;;;0.70;;
5845;SDS011;2949;50.778;7.094;2024-03-02T12:41:36;0.63;;;0.63;;
5845;SDS011;2949;50.778;7.094;2024-03-02T12:44:05;0.63;;;0.63;;
5845;SDS011;2949;50.778;7.094;2024-03-02T12:46:31;1.03;;;0.53;;
5845;SDS011;2949;50.778;7.094;2024-03-02T12:49:05;0.60;;;0.60;;
5845;SDS011;2949;50.778;7.094;2024-03-02T12:51:36;0.60;;;0.60;;
5845;SDS011;2949;50.778;7.094;2024-03-02T12:54:06;1.00;;;0.90;;
5845;SDS011;2949;50.778;7.094;2024-03-02T12:56:33;0.50;;;0.50;;
5845;SDS011;2949;50.778;7.094;2024-03-02T12:58:59;0.67;;;0.60;;
5845;SDS011;2949;50.778;7.094;2024-03-02T13:01:25;2.97;;;0.77;;
5845;SDS011;2949;50.778;7.094;2024-03-02T13:03:51;0.57;;;0.57;;
5845;SDS011;2949;50.778;7.094;2024-03-02T13:06:18;1.30;;;0.80;;
5845;SDS011;2949;50.778;7.094;2024-03-02T13:08:45;0.50;;;0.50;;
5845;SDS011;2949;50.778;7.094;2024-03-02T13:11:11;0.87;;;0.70;;
5845;SDS011;2949;50.778;7.094;2024-03-02T13:13:38;0.90;;;0.50;;
5845;SDS011;2949;50.778;7.094;2024-03-02T13:16:11;0.93;;;0.60;;
5845;SDS011;2949;50.778;7.094;2024-03-02T13:18:40;0.70;;;0.70;;
5845;SDS011;2949;50.778;7.094;2024-03-02T13:21:06;1.63;;;0.50;;
5845;SDS011;2949;50.778;7.094;2024-03-02T13:23:35;0.97;;;0.60;;
5845;SDS011;2949;50.778;7.094;2024-03-02T13:26:00;2.27;;;0.80;;
5845;SDS011;2949;50.778;7.094;2024-03-02T13:28:26;0.73;;;0.73;;
5845;SDS011;2949;50.778;7.094;2024-03-02T13:30:52;1.17;;;0.80;;
5845;SDS011;2949;50.778;7.094;2024-03-02T13:33:18;0.90;;;0.50;;
5845;SDS011;2949;50.778;7.094;2024-03-02T13:35:49;0.60;;;0.60;;
5845;SDS011;2949;50.778;7.094;2024-03-02T13:38:19;0.87;;;0.60;;
5845;SDS011;2949;50.778;7.094;2024-03-02T13:40:45;0.60;;;0.60;;
5845;SDS011;2949;50.778;7.094;2024-03-02T13:43:11;1.60;;;0.73;;
5845;SDS011;2949;50.778;7.094;2024-03-02T13:45:37;0.87;;;0.60;;
5845;SDS011;2949;50.778;7.094;2024-03-02T13:48:03;0.50;;;0.40;;
5845;SDS011;2949;50.778;7.094;2024-03-02T13:50:29;0.63;;;0.63;;
5845;SDS011;2949;50.778;7.094;2024-03-02T13:52:56;1.30;;;0.70;;
5845;SDS011;2949;50.778;7.094;2024-03-02T13:55:21;1.00;;;0.53;;
5845;SDS011;2949;50.778;7.094;2024-03-02T13:57:47;3.80;;;0.70;;
5845;SDS011;2949;50.778;7.094;2024-03-02T14:00:15;3.00;;;1.30;;
5845;SDS011;2949;50.778;7.094;2024-03-02T14:02:42;1.37;;;1.20;;
5845;SDS011;2949;50.778;7.094;2024-03-02T14:05:08;0.70;;;0.70;;
5845;SDS011;2949;50.778;7.094;2024-03-02T14:07:37;0.87;;;0.87;;
5845;SDS011;2949;50.778;7.094;2024-03-02T14:10:03;0.73;;;0.60;;
5845;SDS011;2949;50.778;7.094;2024-03-02T14:12:29;1.43;;;0.70;;
5845;SDS011;2949;50.778;7.094;2024-03-02T14:14:54;0.70;;;0.60;;
5845;SDS011;2949;50.778;7.094;2024-03-02T14:17:23;2.30;;;0.70;;
5845;SDS011;2949;50.778;7.094;2024-03-02T14:19:49;1.37;;;0.63;;
5845;SDS011;2949;50.778;7.094;2024-03-02T14:22:14;0.70;;;0.57;;
5845;SDS011;2949;50.778;7.094;2024-03-02T14:24:42;1.37;;;0.60;;
5845;SDS011;2949;50.778;7.094;2024-03-02T14:27:08;0.90;;;0.60;;
5845;SDS011;2949;50.778;7.094;2024-03-02T14:29:34;0.80;;;0.80;;
5845;SDS011;2949;50.778;7.094;2024-03-02T14:32:02;1.40;;;0.67;;
5845;SDS011;2949;50.778;7.094;2024-03-02T14:34:28;1.53;;;1.03;;
5845;SDS011;2949;50.778;7.094;2024-03-02T14:36:54;0.70;;;0.70;;
5845;SDS011;2949;50.778;7.094;2024-03-02T14:39:20;1.00;;;1.00;;
5845;SDS011;2949;50.778;7.094;2024-03-02T14:41:46;0.90;;;0.67;;
5845;SDS011;2949;50.778;7.094;2024-03-02T14:44:12;1.40;;;1.20;;
5845;SDS011;2949;50.778;7.094;2024-03-02T14:46:37;1.37;;;0.87;;
5845;SDS011;2949;50.778;7.094;2024-03-02T14:49:03;0.70;;;0.70;;
5845;SDS011;2949;50.778;7.094;2024-03-02T14:51:29;0.77;;;0.70;;
5845;SDS011;2949;50.778;7.094;2024-03-02T14:53:55;2.73;;;0.73;;
5845;SDS011;2949;50.778;7.094;2024-03-02T14:56:20;1.17;;;0.83;;
5845;SDS011;2949;50.778;7.094;2024-03-02T14:58:46;0.60;;;0.53;;
5845;SDS011;2949;50.778;7.094;2024-03-02T15:01:12;0.77;;;0.60;;
5845;SDS011;2949;50.778;7.094;2024-03-02T15:03:38;0.77;;;0.77;;
5845;SDS011;2949;50.778;7.094;2024-03-02T15:06:03;1.13;;;0.90;;
5845;SDS011;2949;50.778;7.094;2024-03-02T15:08:30;0.77;;;0.60;;
5845;SDS011;2949;50.778;7.094;2024-03-02T15:10:55;1.50;;;0.97;;
5845;SDS011;2949;50.778;7.094;2024-03-02T15:13:22;1.27;;;0.73;;
5845;SDS011;2949;50.778;7.094;2024-03-02T15:15:49;0.63;;;0.63;;
5845;SDS011;2949;50.778;7.094;2024-03-02T15:18:16;0.83;;;0.83;;
5845;SDS011;2949;50.778;7.094;2024-03-02T15:20:42;0.50;;;0.50;;
5845;SDS011;2949;50.778;7.094;2024-03-02T15:23:07;0.63;;;0.63;;
5845;SDS011;2949;50.778;7.094;2024-03-02T15:25:33;0.60;;;0.60;;
5845;SDS011;2949;50.778;7.094;2024-03-02T15:27:58;1.43;;;0.93;;